createdAt,value
2022-10-22T00:00:19.896Z,9
2022-10-22T00:01:19.981Z,8
2022-10-22T00:02:20.029Z,7
2022-10-22T00:03:19.927Z,9
2022-10-22T00:04:19.830Z,10
2022-10-22T00:05:19.849Z,8
2022-10-22T00:06:19.949Z,12
2022-10-22T00:07:19.836Z,10
2022-10-22T00:08:19.908Z,14
2022-10-22T00:09:19.945Z,9
2022-10-22T00:10:19.924Z,8
2022-10-22T00:11:19.990Z,9
2022-10-22T00:12:19.938Z,10
2022-10-22T00:13:19.983Z,9
2022-10-22T00:14:19.849Z,10
2022-10-22T00:15:19.879Z,9
2022-10-22T00:16:19.982Z,11
2022-10-22T00:17:19.855Z,9
2022-10-22T00:18:19.854Z,8
2022-10-22T00:19:19.880Z,14
2022-10-22T00:20:19.852Z,14
2022-10-22T00:21:19.870Z,14
2022-10-22T00:22:19.980Z,12
2022-10-22T00:23:19.904Z,9
2022-10-22T00:24:19.908Z,10
2022-10-22T00:25:19.845Z,8
2022-10-22T00:26:19.964Z,7
2022-10-22T00:27:19.953Z,10
2022-10-22T00:28:19.936Z,8
2022-10-22T00:29:19.933Z,9
2022-10-22T00:30:19.978Z,9
2022-10-22T00:31:19.981Z,9
2022-10-22T00:32:19.886Z,12
2022-10-22T00:33:19.860Z,10
2022-10-22T00:34:19.888Z,11
2022-10-22T00:35:19.875Z,11
2022-10-22T00:36:19.854Z,8
2022-10-22T00:37:19.888Z,9
2022-10-22T00:38:19.949Z,9
2022-10-22T00:39:19.889Z,12
2022-10-22T00:40:20.015Z,9
2022-10-22T00:41:19.920Z,9
2022-10-22T00:42:19.846Z,12
2022-10-22T00:43:19.976Z,10
2022-10-22T00:44:19.982Z,9
2022-10-22T00:45:20.019Z,8
2022-10-22T00:46:20.082Z,9
2022-10-22T00:47:20.022Z,10
2022-10-22T00:48:20.181Z,11
2022-10-22T00:49:20.133Z,10
2022-10-22T00:50:20.168Z,11
2022-10-22T00:51:20.124Z,10
2022-10-22T00:52:19.877Z,11
2022-10-22T00:53:19.948Z,10
2022-10-22T00:54:19.926Z,8
2022-10-22T00:55:19.929Z,13
2022-10-22T00:56:19.922Z,12
2022-10-22T00:57:19.927Z,7
2022-10-22T00:58:19.857Z,7
2022-10-22T00:59:19.894Z,12
2022-10-22T01:00:19.834Z,8
2022-10-22T01:01:19.978Z,7
2022-10-22T01:02:21.035Z,10
2022-10-22T01:03:20.282Z,7
2022-10-22T01:04:19.856Z,9
2022-10-22T01:05:19.977Z,10
2022-10-22T01:06:19.888Z,9
2022-10-22T01:07:19.991Z,8
2022-10-22T01:08:20.077Z,9
2022-10-22T01:09:19.925Z,9
2022-10-22T01:10:20.029Z,14
2022-10-22T01:11:19.933Z,9
2022-10-22T01:12:19.852Z,6
2022-10-22T01:13:19.850Z,7
2022-10-22T01:14:19.856Z,9
2022-10-22T01:15:19.890Z,9
2022-10-22T01:16:19.947Z,10
2022-10-22T01:18:20.102Z,10
2022-10-22T01:19:19.975Z,8
2022-10-22T01:20:19.960Z,11
2022-10-22T01:21:19.986Z,7
2022-10-22T01:22:19.871Z,7
2022-10-22T01:23:19.879Z,9
2022-10-22T01:24:19.881Z,12
2022-10-22T01:25:19.874Z,10
2022-10-22T01:26:19.973Z,11
2022-10-22T01:27:19.855Z,12
2022-10-22T01:28:19.911Z,7
2022-10-22T01:29:19.918Z,8
2022-10-22T01:30:19.844Z,11
2022-10-22T01:31:19.955Z,8
2022-10-22T01:32:19.932Z,10
2022-10-22T01:33:19.985Z,11
2022-10-22T01:34:19.898Z,12
2022-10-22T01:35:19.974Z,8
2022-10-22T01:36:20.081Z,10
2022-10-22T01:37:19.865Z,8
2022-10-22T01:38:19.853Z,8
2022-10-22T01:39:19.911Z,7
2022-10-22T01:40:19.881Z,6
2022-10-22T01:41:19.914Z,6
2022-10-22T01:42:20.037Z,9
2022-10-22T01:43:19.847Z,8
2022-10-22T01:44:19.843Z,10
2022-10-22T01:45:19.858Z,10
2022-10-22T01:46:19.937Z,10
2022-10-22T01:47:19.851Z,9
2022-10-22T01:48:19.935Z,11
2022-10-22T01:49:19.936Z,9
2022-10-22T01:50:19.847Z,8
2022-10-22T01:51:19.875Z,13
2022-10-22T01:52:19.961Z,10
2022-10-22T01:53:19.927Z,7
2022-10-22T01:54:19.878Z,9
2022-10-22T01:55:19.917Z,11
2022-10-22T01:56:19.892Z,11
2022-10-22T02:01:19.952Z,9
2022-10-22T02:02:19.871Z,11
2022-10-22T02:03:22.864Z,8
2022-10-22T02:04:19.916Z,8
2022-10-22T02:05:19.898Z,6
2022-10-22T02:06:19.881Z,6
2022-10-22T02:07:19.859Z,11
2022-10-22T02:08:19.962Z,14
2022-10-22T02:09:19.910Z,11
2022-10-22T02:10:20.029Z,9
2022-10-22T02:11:19.998Z,12
2022-10-22T02:12:19.995Z,10
2022-10-22T02:13:19.986Z,9
2022-10-22T02:14:20.084Z,12
2022-10-22T02:15:20.111Z,10
2022-10-22T02:16:20.132Z,10
2022-10-22T02:17:19.868Z,13
2022-10-22T02:18:19.860Z,8
2022-10-22T02:19:19.867Z,10
2022-10-22T02:20:19.908Z,11
2022-10-22T02:21:19.918Z,11
2022-10-22T02:22:19.868Z,8
2022-10-22T02:23:19.871Z,13
2022-10-22T02:24:19.864Z,10
2022-10-22T02:25:19.864Z,8
2022-10-22T02:26:19.896Z,11
2022-10-22T02:27:24.226Z,9
2022-10-22T02:28:19.911Z,12
2022-10-22T02:29:19.880Z,13
2022-10-22T02:30:19.859Z,9
2022-10-22T02:31:19.868Z,8
2022-10-22T02:32:19.879Z,11
2022-10-22T02:33:19.867Z,11
2022-10-22T02:34:19.854Z,9
2022-10-22T02:35:19.888Z,7
2022-10-22T02:36:19.941Z,7
2022-10-22T02:37:19.872Z,11
2022-10-22T02:38:19.870Z,14
2022-10-22T02:39:19.885Z,10
2022-10-22T02:40:19.869Z,10
2022-10-22T02:41:19.899Z,11
2022-10-22T02:42:19.877Z,9
2022-10-22T02:43:19.936Z,8
2022-10-22T02:44:19.927Z,10
2022-10-22T02:45:19.869Z,9
2022-10-22T02:46:19.879Z,14
2022-10-22T02:47:19.863Z,10
2022-10-22T02:49:19.895Z,8
2022-10-22T02:50:19.864Z,11
2022-10-22T02:51:19.945Z,11
2022-10-22T02:52:19.896Z,12
2022-10-22T02:53:19.908Z,10
2022-10-22T02:54:19.862Z,10
2022-10-22T02:55:19.874Z,12
2022-10-22T02:56:19.885Z,12
2022-10-22T02:58:19.869Z,10
2022-10-22T02:59:19.899Z,8
2022-10-22T03:00:19.885Z,10
2022-10-22T03:01:19.917Z,13
2022-10-22T03:02:19.866Z,11
2022-10-22T03:03:19.879Z,12
2022-10-22T03:04:19.873Z,10
2022-10-22T03:05:19.863Z,12
2022-10-22T03:06:19.953Z,12
2022-10-22T03:07:19.901Z,12
2022-10-22T03:08:19.861Z,12
2022-10-22T03:09:22.640Z,15
2022-10-22T03:10:19.880Z,13
2022-10-22T03:11:19.885Z,12
2022-10-22T03:12:19.902Z,13
2022-10-22T03:13:19.873Z,11
2022-10-22T03:14:19.918Z,13
2022-10-22T03:15:19.941Z,11
2022-10-22T03:16:19.885Z,13
2022-10-22T03:17:19.887Z,11
2022-10-22T03:18:19.893Z,11
2022-10-22T03:19:19.873Z,15
2022-10-22T03:20:19.922Z,16
2022-10-22T03:21:19.886Z,10
2022-10-22T03:22:19.905Z,12
2022-10-22T03:23:19.903Z,12
2022-10-22T03:24:19.859Z,13
2022-10-22T03:25:19.876Z,11
2022-10-22T03:26:19.892Z,12
2022-10-22T03:27:19.854Z,11
2022-10-22T03:28:19.902Z,14
2022-10-22T03:29:19.886Z,14
2022-10-22T03:30:19.937Z,12
2022-10-22T03:31:19.970Z,15
2022-10-22T03:32:19.883Z,14
2022-10-22T03:33:19.886Z,12
2022-10-22T03:34:19.965Z,13
2022-10-22T03:35:19.867Z,11
2022-10-22T03:36:19.887Z,12
2022-10-22T03:37:19.868Z,11
2022-10-22T03:38:19.923Z,12
2022-10-22T03:39:19.885Z,10
2022-10-22T03:40:19.867Z,11
2022-10-22T03:41:19.905Z,13
2022-10-22T03:42:19.866Z,12
2022-10-22T03:43:19.968Z,13
2022-10-22T03:44:19.875Z,13
2022-10-22T03:45:19.914Z,14
2022-10-22T03:46:20.016Z,9
2022-10-22T03:47:19.895Z,14
2022-10-22T03:48:19.881Z,13
2022-10-22T03:49:19.917Z,13
2022-10-22T03:50:19.906Z,13
2022-10-22T03:51:19.939Z,11
2022-10-22T03:52:19.874Z,12
2022-10-22T03:53:19.917Z,13
2022-10-22T03:54:20.026Z,13
2022-10-22T03:55:19.864Z,8
2022-10-22T03:56:19.957Z,11
2022-10-22T03:57:19.981Z,12
2022-10-22T03:58:19.950Z,13
2022-10-22T03:59:19.990Z,12
2022-10-22T04:00:19.965Z,10
2022-10-22T04:01:20.038Z,12
2022-10-22T04:02:19.972Z,12
2022-10-22T04:03:19.981Z,12
2022-10-22T04:04:19.905Z,14
2022-10-22T04:05:19.881Z,12
2022-10-22T04:06:19.897Z,12
2022-10-22T04:07:19.901Z,12
2022-10-22T04:08:19.918Z,12
2022-10-22T04:09:20.005Z,12
2022-10-22T04:10:20.180Z,12
2022-10-22T04:11:19.959Z,12
2022-10-22T04:12:19.987Z,11
2022-10-22T04:13:20.046Z,11
2022-10-22T04:14:20.045Z,11
2022-10-22T04:15:20.105Z,15
2022-10-22T04:16:20.113Z,11
2022-10-22T04:17:20.164Z,12
2022-10-22T04:18:20.166Z,10
2022-10-22T04:19:20.211Z,14
2022-10-22T04:20:20.091Z,15
2022-10-22T04:21:20.237Z,12
2022-10-22T04:22:19.915Z,12
2022-10-22T04:23:19.906Z,10
2022-10-22T04:24:19.939Z,14
2022-10-22T04:25:19.937Z,15
2022-10-22T04:26:19.910Z,12
2022-10-22T04:27:19.867Z,13
2022-10-22T04:28:19.876Z,12
2022-10-22T04:29:19.881Z,10
2022-10-22T04:30:19.909Z,14
2022-10-22T04:31:19.900Z,10
2022-10-22T04:32:19.922Z,11
2022-10-22T04:33:19.924Z,12
2022-10-22T04:34:20.043Z,15
2022-10-22T04:35:20.151Z,14
2022-10-22T04:36:19.893Z,11
2022-10-22T04:37:19.899Z,14
2022-10-22T04:38:20.003Z,13
2022-10-22T04:39:19.913Z,15
2022-10-22T04:40:20.016Z,17
2022-10-22T04:41:20.053Z,14
2022-10-22T04:42:19.932Z,12
2022-10-22T04:43:19.891Z,12
2022-10-22T04:44:19.884Z,10
2022-10-22T04:45:19.851Z,11
2022-10-22T04:46:19.899Z,12
2022-10-22T04:47:19.886Z,13
2022-10-22T04:48:20.004Z,14
2022-10-22T04:49:19.981Z,14
2022-10-22T04:50:19.986Z,12
2022-10-22T04:51:20.005Z,12
2022-10-22T04:52:20.013Z,11
2022-10-22T04:53:19.907Z,17
2022-10-22T04:54:19.877Z,12
2022-10-22T04:55:19.965Z,15
2022-10-22T04:56:19.949Z,12
2022-10-22T04:57:19.922Z,15
2022-10-22T04:58:19.876Z,13
2022-10-22T04:59:19.930Z,13
2022-10-22T05:00:19.940Z,14
2022-10-22T05:01:20.086Z,15
2022-10-22T05:02:19.945Z,12
2022-10-22T05:03:19.957Z,16
2022-10-22T05:04:19.987Z,11
2022-10-22T05:05:19.959Z,15
2022-10-22T05:06:19.997Z,13
2022-10-22T05:07:19.987Z,15
2022-10-22T05:08:19.991Z,16
2022-10-22T05:09:19.970Z,14
2022-10-22T05:10:19.894Z,15
2022-10-22T05:11:19.960Z,13
2022-10-22T05:12:20.013Z,14
2022-10-22T05:13:19.929Z,15
2022-10-22T05:14:19.931Z,13
2022-10-22T05:15:19.939Z,10
2022-10-22T05:16:19.955Z,15
2022-10-22T05:17:19.941Z,13
2022-10-22T05:18:21.879Z,12
2022-10-22T05:19:20.006Z,13
2022-10-22T05:20:19.969Z,12
2022-10-22T05:21:19.994Z,15
2022-10-22T05:22:19.891Z,18
2022-10-22T05:23:19.990Z,15
2022-10-22T05:24:19.894Z,12
2022-10-22T05:25:19.998Z,16
2022-10-22T05:26:19.929Z,14
2022-10-22T05:27:19.981Z,13
2022-10-22T05:28:19.921Z,14
2022-10-22T05:29:19.922Z,19
2022-10-22T05:30:19.928Z,13
2022-10-22T05:31:19.958Z,15
2022-10-22T05:32:19.968Z,11
2022-10-22T05:33:23.994Z,15
2022-10-22T05:34:19.899Z,11
2022-10-22T05:35:19.941Z,13
2022-10-22T05:36:19.909Z,18
2022-10-22T05:37:19.883Z,15
2022-10-22T05:38:19.890Z,12
2022-10-22T05:39:19.882Z,10
2022-10-22T05:40:30.484Z,14
2022-10-22T05:41:19.933Z,15
2022-10-22T05:42:20.021Z,13
2022-10-22T05:43:20.029Z,14
2022-10-22T05:44:19.921Z,14
2022-10-22T05:45:19.932Z,14
2022-10-22T05:46:22.586Z,13
2022-10-22T05:47:19.873Z,17
2022-10-22T05:48:20.000Z,12
2022-10-22T05:49:19.902Z,15
2022-10-22T05:50:20.104Z,14
2022-10-22T05:51:19.977Z,14
2022-10-22T05:52:19.968Z,12
2022-10-22T05:53:19.973Z,14
2022-10-22T05:54:19.996Z,18
2022-10-22T05:55:19.901Z,11
2022-10-22T05:56:20.022Z,15
2022-10-22T05:57:19.904Z,16
2022-10-22T05:58:20.007Z,15
2022-10-22T05:59:19.919Z,15
2022-10-22T06:00:19.890Z,13
2022-10-22T06:01:19.914Z,14
2022-10-22T06:02:19.935Z,18
2022-10-22T06:03:19.909Z,16
2022-10-22T06:04:19.904Z,14
2022-10-22T06:05:19.884Z,15
2022-10-22T06:06:19.986Z,17
2022-10-22T06:07:19.976Z,13
2022-10-22T06:08:19.898Z,22
2022-10-22T06:09:19.970Z,15
2022-10-22T06:10:20.009Z,15
2022-10-22T06:11:20.000Z,13
2022-10-22T06:12:19.901Z,14
2022-10-22T06:13:19.905Z,14
2022-10-22T06:14:19.926Z,18
2022-10-22T06:15:19.884Z,18
2022-10-22T06:16:20.041Z,15
2022-10-22T06:17:19.936Z,19
2022-10-22T06:18:20.036Z,17
2022-10-22T06:19:20.112Z,17
2022-10-22T06:20:20.196Z,18
2022-10-22T06:21:20.146Z,17
2022-10-22T06:22:20.023Z,18
2022-10-22T06:23:20.029Z,17
2022-10-22T06:24:20.017Z,18
2022-10-22T06:25:20.156Z,17
2022-10-22T06:26:19.984Z,15
2022-10-22T06:27:19.894Z,14
2022-10-22T06:28:20.060Z,15
2022-10-22T06:29:19.936Z,17
2022-10-22T06:30:20.008Z,16
2022-10-22T06:31:19.933Z,15
2022-10-22T06:32:19.911Z,17
2022-10-22T06:33:19.915Z,16
2022-10-22T06:34:19.970Z,16
2022-10-22T06:35:19.937Z,20
2022-10-22T06:36:19.909Z,15
2022-10-22T06:37:19.944Z,15
2022-10-22T06:38:19.918Z,13
2022-10-22T06:39:19.909Z,18
2022-10-22T06:40:19.906Z,17
2022-10-22T06:41:19.925Z,18
2022-10-22T06:42:19.881Z,13
2022-10-22T06:43:19.902Z,15
2022-10-22T06:44:19.895Z,14
2022-10-22T06:45:19.939Z,15
2022-10-22T06:46:20.299Z,13
2022-10-22T06:47:19.892Z,16
2022-10-22T06:48:19.897Z,15
2022-10-22T06:49:19.946Z,14
2022-10-22T06:50:19.899Z,15
2022-10-22T06:51:19.899Z,14
2022-10-22T06:52:19.911Z,14
2022-10-22T06:54:19.895Z,12
2022-10-22T06:55:19.901Z,14
2022-10-22T06:56:19.921Z,17
2022-10-22T06:57:19.897Z,15
2022-10-22T06:58:19.876Z,15
2022-10-22T06:59:19.890Z,13
2022-10-22T07:00:20.103Z,13
2022-10-22T07:01:20.109Z,13
2022-10-22T07:02:19.891Z,12
2022-10-22T07:03:19.998Z,15
2022-10-22T07:04:19.908Z,13
2022-10-22T07:05:19.926Z,11
2022-10-22T07:06:19.952Z,12
2022-10-22T07:07:20.131Z,11
2022-10-22T07:08:20.299Z,14
2022-10-22T07:09:20.151Z,12
2022-10-22T07:10:20.444Z,13
2022-10-22T07:11:19.999Z,12
2022-10-22T07:12:19.995Z,12
2022-10-22T07:13:19.973Z,11
2022-10-22T07:14:19.985Z,13
2022-10-22T07:15:19.991Z,10
2022-10-22T07:16:19.954Z,12
2022-10-22T07:17:19.891Z,12
2022-10-22T07:18:19.947Z,10
2022-10-22T07:19:19.919Z,13
2022-10-22T07:20:20.024Z,12
2022-10-22T07:21:19.946Z,13
2022-10-22T07:22:19.898Z,15
2022-10-22T07:23:19.931Z,13
2022-10-22T07:24:19.934Z,12
2022-10-22T07:25:19.893Z,11
2022-10-22T07:26:19.966Z,11
2022-10-22T07:27:19.906Z,11
2022-10-22T07:28:20.016Z,9
2022-10-22T07:29:19.896Z,11
2022-10-22T07:30:19.895Z,13
2022-10-22T07:31:19.955Z,12
2022-10-22T07:32:23.684Z,10
2022-10-22T07:33:20.002Z,12
2022-10-22T07:35:19.909Z,11
2022-10-22T07:36:19.964Z,10
2022-10-22T07:37:19.899Z,8
2022-10-22T07:38:19.946Z,13
2022-10-22T07:39:19.954Z,9
2022-10-22T07:40:19.959Z,11
2022-10-22T07:41:19.917Z,9
2022-10-22T07:42:20.018Z,11
2022-10-22T07:43:19.919Z,8
2022-10-22T07:44:19.902Z,9
2022-10-22T07:45:19.960Z,11
2022-10-22T07:46:19.915Z,11
2022-10-22T07:47:19.954Z,10
2022-10-22T07:48:20.048Z,11
2022-10-22T07:49:20.029Z,12
2022-10-22T07:50:20.015Z,9
2022-10-22T07:51:19.938Z,10
2022-10-22T07:52:19.925Z,9
2022-10-22T07:53:19.905Z,10
2022-10-22T07:54:19.941Z,9
2022-10-22T07:55:20.057Z,13
2022-10-22T07:56:19.995Z,9
2022-10-22T07:57:19.952Z,13
2022-10-22T07:58:19.965Z,11
2022-10-22T07:59:19.963Z,9
2022-10-22T08:00:23.061Z,12
2022-10-22T08:01:20.031Z,8
2022-10-22T08:02:19.992Z,10
2022-10-22T08:03:19.999Z,10
2022-10-22T08:04:19.920Z,12
2022-10-22T08:05:20.036Z,8
2022-10-22T08:06:19.916Z,11
2022-10-22T08:07:20.094Z,8
2022-10-22T08:08:19.912Z,9
2022-10-22T08:09:19.929Z,8
2022-10-22T08:10:20.030Z,8
2022-10-22T08:11:19.964Z,7
2022-10-22T08:12:19.896Z,6
2022-10-22T08:13:19.908Z,10
2022-10-22T08:14:19.910Z,7
2022-10-22T08:15:19.914Z,7
2022-10-22T08:16:19.992Z,5
2022-10-22T08:17:20.014Z,6
2022-10-22T08:18:19.988Z,6
2022-10-22T08:19:19.956Z,9
2022-10-22T08:20:19.911Z,8
2022-10-22T08:21:20.029Z,6
2022-10-22T08:22:20.058Z,6
2022-10-22T08:23:23.203Z,7
2022-10-22T08:24:20.018Z,7
2022-10-22T08:25:19.940Z,7
2022-10-22T08:26:19.976Z,9
2022-10-22T08:27:20.077Z,7
2022-10-22T08:28:22.075Z,7
2022-10-22T08:29:19.964Z,9
2022-10-22T08:30:19.964Z,8
2022-10-22T08:31:19.929Z,7
2022-10-22T08:32:20.037Z,5
2022-10-22T08:33:20.148Z,9
2022-10-22T08:34:20.234Z,5
2022-10-22T08:35:20.249Z,7
2022-10-22T08:36:19.952Z,6
2022-10-22T08:37:19.929Z,6
2022-10-22T08:38:20.045Z,6
2022-10-22T08:39:19.905Z,7
2022-10-22T08:40:20.177Z,6
2022-10-22T08:41:19.949Z,9
2022-10-22T08:42:19.939Z,5
2022-10-22T08:43:19.902Z,7
2022-10-22T08:44:19.963Z,9
2022-10-22T08:45:19.895Z,7
2022-10-22T08:46:20.213Z,8
2022-10-22T08:47:22.315Z,9
2022-10-22T08:48:19.924Z,6
2022-10-22T08:49:19.986Z,11
2022-10-22T08:50:20.063Z,5
2022-10-22T08:51:20.389Z,7
2022-10-22T08:52:20.015Z,10
2022-10-22T08:53:19.933Z,8
2022-10-22T08:54:19.912Z,9
2022-10-22T08:55:19.958Z,9
2022-10-22T08:56:19.936Z,7
2022-10-22T08:57:20.111Z,8
2022-10-22T08:58:19.951Z,6
2022-10-22T08:59:19.918Z,7
2022-10-22T09:00:19.910Z,8
2022-10-22T09:01:19.942Z,9
2022-10-22T09:02:19.915Z,6
2022-10-22T09:03:19.921Z,6
2022-10-22T09:04:19.936Z,5
2022-10-22T09:05:19.954Z,5
2022-10-22T09:06:20.013Z,6
2022-10-22T09:07:19.921Z,6
2022-10-22T09:08:19.932Z,6
2022-10-22T09:09:20.074Z,5
2022-10-22T09:10:19.928Z,4
2022-10-22T09:11:19.929Z,9
2022-10-22T09:12:20.566Z,7
2022-10-22T09:13:19.974Z,6
2022-10-22T09:14:19.884Z,6
2022-10-22T09:15:19.918Z,8
2022-10-22T09:16:19.933Z,6
2022-10-22T09:17:19.909Z,7
2022-10-22T09:18:19.925Z,9
2022-10-22T09:19:19.939Z,5
2022-10-22T09:20:19.935Z,5
2022-10-22T09:21:19.968Z,6
2022-10-22T09:22:19.917Z,5
2022-10-22T09:23:19.930Z,7
2022-10-22T09:24:19.933Z,6
2022-10-22T09:25:19.913Z,5
2022-10-22T09:26:19.937Z,8
2022-10-22T09:27:19.902Z,4
2022-10-22T09:28:19.975Z,5
2022-10-22T09:29:19.952Z,5
2022-10-22T09:30:19.927Z,6
2022-10-22T09:31:19.955Z,7
2022-10-22T09:32:19.913Z,5
2022-10-22T09:33:22.622Z,6
2022-10-22T09:34:19.965Z,7
2022-10-22T09:35:19.908Z,6
2022-10-22T09:36:19.980Z,10
2022-10-22T09:37:19.955Z,7
2022-10-22T09:38:19.906Z,7
2022-10-22T09:39:19.926Z,7
2022-10-22T09:40:19.942Z,4
2022-10-22T09:41:19.926Z,7
2022-10-22T09:42:19.922Z,7
2022-10-22T09:43:19.915Z,6
2022-10-22T09:44:19.961Z,6
2022-10-22T09:45:19.915Z,6
2022-10-22T09:46:20.012Z,6
2022-10-22T09:47:19.918Z,4
2022-10-22T09:48:19.913Z,5
2022-10-22T09:49:19.950Z,7
2022-10-22T09:50:19.909Z,5
2022-10-22T09:51:19.970Z,4
2022-10-22T09:52:19.962Z,9
2022-10-22T09:53:19.918Z,7
2022-10-22T09:54:19.951Z,4
2022-10-22T09:55:19.908Z,5
2022-10-22T09:56:20.033Z,4
2022-10-22T09:57:19.936Z,6
2022-10-22T09:58:19.923Z,7
2022-10-22T09:59:20.026Z,6
2022-10-22T10:00:19.967Z,3
2022-10-22T10:01:19.938Z,8
2022-10-22T10:02:37.063Z,7
2022-10-22T10:03:19.972Z,7
2022-10-22T10:04:19.975Z,6
2022-10-22T10:05:19.939Z,6
2022-10-22T10:06:19.946Z,7
2022-10-22T10:07:19.984Z,7
2022-10-22T10:08:19.960Z,8
2022-10-22T10:09:19.975Z,4
2022-10-22T10:10:19.920Z,6
2022-10-22T10:11:19.968Z,6
2022-10-22T10:12:19.907Z,4
2022-10-22T10:13:19.953Z,6
2022-10-22T10:14:19.921Z,4
2022-10-22T10:15:19.966Z,5
2022-10-22T10:16:19.943Z,7
2022-10-22T10:17:19.920Z,7
2022-10-22T10:18:19.918Z,5
2022-10-22T10:19:20.007Z,6
2022-10-22T10:20:19.965Z,7
2022-10-22T10:21:19.974Z,7
2022-10-22T10:22:19.921Z,5
2022-10-22T10:23:23.007Z,5
2022-10-22T10:24:19.933Z,5
2022-10-22T10:25:19.927Z,6
2022-10-22T10:26:19.929Z,7
2022-10-22T10:27:19.912Z,6
2022-10-22T10:28:20.023Z,6
2022-10-22T10:29:19.929Z,7
2022-10-22T10:30:20.001Z,4
2022-10-22T10:31:20.102Z,7
2022-10-22T10:32:22.401Z,6
2022-10-22T10:33:20.074Z,8
2022-10-22T10:34:20.121Z,6
2022-10-22T10:35:19.926Z,6
2022-10-22T10:36:19.970Z,4
2022-10-22T10:37:19.921Z,8
2022-10-22T10:38:20.077Z,5
2022-10-22T10:39:19.963Z,5
2022-10-22T10:40:19.930Z,6
2022-10-22T10:41:19.947Z,8
2022-10-22T10:42:19.946Z,6
2022-10-22T10:43:19.999Z,7
2022-10-22T10:44:20.026Z,4
2022-10-22T10:45:20.013Z,5
2022-10-22T10:46:20.059Z,4
2022-10-22T10:47:19.960Z,4
2022-10-22T10:48:19.930Z,4
2022-10-22T10:49:19.950Z,6
2022-10-22T10:50:19.941Z,3
2022-10-22T10:51:19.947Z,5
2022-10-22T10:52:21.311Z,5
2022-10-22T10:53:19.961Z,5
2022-10-22T10:54:19.969Z,6
2022-10-22T10:55:19.930Z,7
2022-10-22T10:56:20.006Z,4
2022-10-22T10:57:19.987Z,5
2022-10-22T10:58:19.987Z,5
2022-10-22T10:59:19.922Z,5
2022-10-22T11:00:20.009Z,7
2022-10-22T11:01:20.037Z,6
2022-10-22T11:02:20.019Z,4
2022-10-22T11:03:20.028Z,5
2022-10-22T11:04:19.931Z,5
2022-10-22T11:05:19.933Z,2
2022-10-22T11:06:23.014Z,6
2022-10-22T11:07:30.376Z,4
2022-10-22T11:08:19.949Z,4
2022-10-22T11:09:20.003Z,4
2022-10-22T11:10:20.079Z,4
2022-10-22T11:11:20.008Z,3
2022-10-22T11:12:20.109Z,4
2022-10-22T11:13:19.961Z,7
2022-10-22T11:14:19.933Z,9
2022-10-22T11:15:19.931Z,5
2022-10-22T11:16:19.954Z,3
2022-10-22T11:17:19.972Z,5
2022-10-22T11:18:20.042Z,4
2022-10-22T11:19:23.172Z,9
2022-10-22T11:20:20.039Z,4
2022-10-22T11:21:19.948Z,6
2022-10-22T11:22:24.555Z,3
2022-10-22T11:23:21.547Z,10
2022-10-22T11:24:19.931Z,6
2022-10-22T11:25:19.984Z,5
2022-10-22T11:26:20.082Z,7
2022-10-22T11:27:19.969Z,4
2022-10-22T11:28:19.931Z,4
2022-10-22T11:29:19.932Z,7
2022-10-22T11:30:19.991Z,6
2022-10-22T11:31:19.948Z,6
2022-10-22T11:32:19.993Z,6
2022-10-22T11:33:20.021Z,5
2022-10-22T11:34:35.312Z,7
2022-10-22T11:35:24.888Z,7
2022-10-22T11:36:20.097Z,5
2022-10-22T11:37:19.993Z,7
2022-10-22T11:38:19.937Z,8
2022-10-22T11:39:19.938Z,7
2022-10-22T11:40:19.941Z,5
2022-10-22T11:41:19.988Z,8
2022-10-22T11:42:19.922Z,8
2022-10-22T11:43:19.920Z,5
2022-10-22T11:44:19.971Z,5
2022-10-22T11:45:19.944Z,7
2022-10-22T11:46:20.114Z,7
2022-10-22T11:47:19.937Z,5
2022-10-22T11:48:19.976Z,5
2022-10-22T11:49:20.029Z,6
2022-10-22T11:50:19.935Z,10
2022-10-22T11:51:20.034Z,6
2022-10-22T11:52:19.936Z,9
2022-10-22T11:53:19.934Z,8
2022-10-22T11:54:19.979Z,7
2022-10-22T11:55:19.936Z,7
2022-10-22T11:56:19.992Z,6
2022-10-22T11:57:20.060Z,9
2022-10-22T11:58:19.959Z,7
2022-10-22T11:59:19.937Z,10
2022-10-22T12:00:19.932Z,4
2022-10-22T12:01:20.007Z,5
2022-10-22T12:02:19.937Z,6
2022-10-22T12:03:19.947Z,4
2022-10-22T12:04:20.034Z,8
2022-10-22T12:05:19.969Z,6
2022-10-22T12:06:19.954Z,5
2022-10-22T12:07:20.034Z,3
2022-10-22T12:08:19.917Z,5
2022-10-22T12:09:20.009Z,4
2022-10-22T12:10:19.938Z,9
2022-10-22T12:11:19.981Z,4
2022-10-22T12:12:20.052Z,9
2022-10-22T12:13:19.963Z,6
2022-10-22T12:14:19.986Z,3
2022-10-22T12:15:19.939Z,7
2022-10-22T12:16:27.306Z,9
2022-10-22T12:17:19.936Z,6
2022-10-22T12:18:19.938Z,6
2022-10-22T12:19:20.023Z,5
2022-10-22T12:20:20.002Z,8
2022-10-22T12:21:19.956Z,8
2022-10-22T12:22:20.044Z,5
2022-10-22T12:23:19.941Z,5
2022-10-22T12:24:19.937Z,5
2022-10-22T12:25:20.112Z,6
2022-10-22T12:26:20.095Z,5
2022-10-22T12:27:22.534Z,8
2022-10-22T12:28:19.977Z,7
2022-10-22T12:29:19.959Z,6
2022-10-22T12:30:19.971Z,7
2022-10-22T12:31:19.954Z,6
2022-10-22T12:32:19.940Z,6
2022-10-22T12:33:19.977Z,5
2022-10-22T12:34:19.954Z,6
2022-10-22T12:35:19.974Z,6
2022-10-22T12:36:19.950Z,5
2022-10-22T12:37:20.022Z,5
2022-10-22T12:38:19.978Z,10
2022-10-22T12:39:19.994Z,5
2022-10-22T12:40:20.035Z,6
2022-10-22T12:41:20.069Z,9
2022-10-22T12:42:19.940Z,5
2022-10-22T12:43:19.986Z,6
2022-10-22T12:44:19.939Z,4
2022-10-22T12:45:19.936Z,5
2022-10-22T12:46:19.990Z,4
2022-10-22T12:47:19.973Z,6
2022-10-22T12:48:19.990Z,4
2022-10-22T12:49:19.957Z,4
2022-10-22T12:50:20.027Z,4
2022-10-22T12:51:20.068Z,5
2022-10-22T12:52:20.025Z,3
2022-10-22T12:53:20.015Z,4
2022-10-22T12:54:20.026Z,6
2022-10-22T12:55:19.932Z,6
2022-10-22T12:56:20.043Z,4
2022-10-22T12:57:19.943Z,3
2022-10-22T12:58:20.054Z,4
2022-10-22T12:59:20.057Z,5
2022-10-22T13:00:19.935Z,5
2022-10-22T13:01:20.190Z,7
2022-10-22T13:02:19.946Z,7
2022-10-22T13:03:19.935Z,3
2022-10-22T13:04:19.990Z,5
2022-10-22T13:05:19.975Z,6
2022-10-22T13:06:19.996Z,9
2022-10-22T13:07:22.301Z,5
2022-10-22T13:08:19.958Z,2
2022-10-22T13:09:23.740Z,8
2022-10-22T13:10:20.022Z,4
2022-10-22T13:11:19.995Z,5
2022-10-22T13:12:20.087Z,4
2022-10-22T13:13:19.990Z,4
2022-10-22T13:14:20.037Z,4
2022-10-22T13:15:20.057Z,3
2022-10-22T13:16:20.045Z,5
2022-10-22T13:17:19.985Z,4
2022-10-22T13:18:20.094Z,3
2022-10-22T13:19:20.006Z,4
2022-10-22T13:20:20.007Z,3
2022-10-22T13:21:20.148Z,4
2022-10-22T13:22:20.024Z,4
2022-10-22T13:23:20.176Z,6
2022-10-22T13:24:20.029Z,3
2022-10-22T13:25:20.036Z,2
2022-10-22T13:26:19.962Z,3
2022-10-22T13:27:20.052Z,4
2022-10-22T13:28:19.951Z,2
2022-10-22T13:29:19.988Z,4
2022-10-22T13:30:19.981Z,7
2022-10-22T13:31:20.026Z,5
2022-10-22T13:32:20.004Z,7
2022-10-22T13:33:19.945Z,9
2022-10-22T13:34:19.995Z,4
2022-10-22T13:35:19.932Z,8
2022-10-22T13:36:19.951Z,7
2022-10-22T13:37:20.120Z,3
2022-10-22T13:38:19.991Z,4
2022-10-22T13:39:19.943Z,3
2022-10-22T13:40:20.033Z,3
2022-10-22T13:41:19.968Z,4
2022-10-22T13:42:20.061Z,9
2022-10-22T13:43:20.056Z,4
2022-10-22T13:44:19.997Z,4
2022-10-22T13:45:20.066Z,4
2022-10-22T13:46:20.095Z,6
2022-10-22T13:47:19.945Z,7
2022-10-22T13:48:20.004Z,5
2022-10-22T13:49:20.031Z,5
2022-10-22T13:50:19.994Z,6
2022-10-22T13:51:20.015Z,7
2022-10-22T13:52:19.950Z,6
2022-10-22T13:53:20.016Z,4
2022-10-22T13:54:20.051Z,3
2022-10-22T13:55:20.033Z,4
2022-10-22T13:56:20.054Z,4
2022-10-22T13:57:20.037Z,3
2022-10-22T13:58:20.075Z,4
2022-10-22T13:59:22.985Z,3
2022-10-22T14:00:20.073Z,5
2022-10-22T14:01:20.158Z,4
2022-10-22T14:02:19.977Z,4
2022-10-22T14:03:20.061Z,4
2022-10-22T14:04:20.011Z,4
2022-10-22T14:05:19.968Z,4
2022-10-22T14:06:20.012Z,5
2022-10-22T14:07:20.044Z,3
2022-10-22T14:08:20.021Z,2
2022-10-22T14:09:20.118Z,5
2022-10-22T14:10:20.156Z,2
2022-10-22T14:11:20.048Z,6
2022-10-22T14:12:20.039Z,3
2022-10-22T14:13:20.028Z,4
2022-10-22T14:14:19.953Z,4
2022-10-22T14:15:19.963Z,4
2022-10-22T14:16:20.058Z,3
2022-10-22T14:17:20.048Z,3
2022-10-22T14:18:19.977Z,3
2022-10-22T14:19:19.984Z,6
2022-10-22T14:20:19.962Z,6
2022-10-22T14:21:20.012Z,3
2022-10-22T14:22:20.002Z,4
2022-10-22T14:23:20.011Z,4
2022-10-22T14:24:20.003Z,5
2022-10-22T14:25:20.006Z,5
2022-10-22T14:26:20.061Z,3
2022-10-22T14:27:20.045Z,5
2022-10-22T14:28:20.045Z,3
2022-10-22T14:29:19.961Z,5
2022-10-22T14:30:19.972Z,4
2022-10-22T14:31:19.959Z,4
2022-10-22T14:32:20.001Z,4
2022-10-22T14:33:19.959Z,3
2022-10-22T14:34:20.000Z,4
2022-10-22T14:35:19.958Z,4
2022-10-22T14:36:20.052Z,3
2022-10-22T14:37:20.010Z,4
2022-10-22T14:38:19.963Z,3
2022-10-22T14:39:19.949Z,4
2022-10-22T14:40:20.010Z,3
2022-10-22T14:41:19.964Z,4